sensor_id;sensor_type;location;lat;lon;timestamp;P1;durP1;ratioP1;P2;durP2;ratioP2
21634;SDS011;10979;48.306;9.830;2022-12-07T00:01:32;0.30;;;0.30;;
21634;SDS011;10979;48.306;9.830;2022-12-07T00:04:03;0.40;;;0.40;;
21634;SDS011;10979;48.306;9.830;2022-12-07T00:06:34;0.30;;;0.30;;
21634;SDS011;10979;48.306;9.830;2022-12-07T00:09:05;0.38;;;0.38;;
21634;SDS011;10979;48.306;9.830;2022-12-07T00:11:32;0.30;;;0.30;;
21634;SDS011;10979;48.306;9.830;2022-12-07T00:13:59;0.30;;;0.30;;
21634;SDS011;10979;48.306;9.830;2022-12-07T00:16:28;0.30;;;0.30;;
21634;SDS011;10979;48.306;9.830;2022-12-07T00:18:55;0.30;;;0.30;;
21634;SDS011;10979;48.306;9.830;2022-12-07T00:21:21;0.30;;;0.30;;
21634;SDS011;10979;48.306;9.830;2022-12-07T00:23:49;0.30;;;0.30;;
21634;SDS011;10979;48.306;9.830;2022-12-07T00:26:16;0.30;;;0.30;;
21634;SDS011;10979;48.306;9.830;2022-12-07T00:28:54;0.30;;;0.30;;
21634;SDS011;10979;48.306;9.830;2022-12-07T00:31:22;0.30;;;0.30;;
21634;SDS011;10979;48.306;9.830;2022-12-07T00:33:49;0.30;;;0.30;;
21634;SDS011;10979;48.306;9.830;2022-12-07T00:36:16;0.32;;;0.32;;
21634;SDS011;10979;48.306;9.830;2022-12-07T00:38:43;0.30;;;0.30;;
21634;SDS011;10979;48.306;9.830;2022-12-07T00:41:10;0.30;;;0.30;;
21634;SDS011;10979;48.306;9.830;2022-12-07T00:43:46;0.30;;;0.30;;
21634;SDS011;10979;48.306;9.830;2022-12-07T00:46:13;0.30;;;0.30;;
21634;SDS011;10979;48.306;9.830;2022-12-07T00:48:40;0.30;;;0.30;;
21634;SDS011;10979;48.306;9.830;2022-12-07T00:51:06;0.30;;;0.30;;
21634;SDS011;10979;48.306;9.830;2022-12-07T00:53:36;0.30;;;0.30;;
21634;SDS011;10979;48.306;9.830;2022-12-07T00:56:04;0.30;;;0.30;;
21634;SDS011;10979;48.306;9.830;2022-12-07T00:58:34;0.30;;;0.30;;
21634;SDS011;10979;48.306;9.830;2022-12-07T01:01:00;0.30;;;0.30;;
21634;SDS011;10979;48.306;9.830;2022-12-07T01:03:27;0.30;;;0.30;;
21634;SDS011;10979;48.306;9.830;2022-12-07T01:05:54;0.30;;;0.30;;
21634;SDS011;10979;48.306;9.830;2022-12-07T01:08:20;0.30;;;0.30;;
21634;SDS011;10979;48.306;9.830;2022-12-07T01:10:47;0.30;;;0.30;;
21634;SDS011;10979;48.306;9.830;2022-12-07T01:13:13;0.32;;;0.32;;
21634;SDS011;10979;48.306;9.830;2022-12-07T01:15:43;0.30;;;0.30;;
21634;SDS011;10979;48.306;9.830;2022-12-07T01:18:09;0.30;;;0.30;;
21634;SDS011;10979;48.306;9.830;2022-12-07T01:20:35;0.30;;;0.30;;
21634;SDS011;10979;48.306;9.830;2022-12-07T01:23:01;0.30;;;0.30;;
21634;SDS011;10979;48.306;9.830;2022-12-07T01:25:27;0.30;;;0.30;;
21634;SDS011;10979;48.306;9.830;2022-12-07T01:27:53;0.30;;;0.30;;
21634;SDS011;10979;48.306;9.830;2022-12-07T01:30:19;0.30;;;0.30;;
21634;SDS011;10979;48.306;9.830;2022-12-07T01:32:44;0.30;;;0.30;;
21634;SDS011;10979;48.306;9.830;2022-12-07T01:35:10;0.30;;;0.30;;
21634;SDS011;10979;48.306;9.830;2022-12-07T01:37:35;0.30;;;0.30;;
21634;SDS011;10979;48.306;9.830;2022-12-07T01:40:03;0.30;;;0.30;;
21634;SDS011;10979;48.306;9.830;2022-12-07T01:42:30;0.40;;;0.40;;
21634;SDS011;10979;48.306;9.830;2022-12-07T01:48:04;0.40;;;0.40;;
21634;SDS011;10979;48.306;9.830;2022-12-07T01:50:29;0.30;;;0.30;;
21634;SDS011;10979;48.306;9.830;2022-12-07T01:52:57;0.30;;;0.30;;
21634;SDS011;10979;48.306;9.830;2022-12-07T01:55:26;0.30;;;0.30;;
21634;SDS011;10979;48.306;9.830;2022-12-07T01:57:52;0.30;;;0.30;;
21634;SDS011;10979;48.306;9.830;2022-12-07T02:00:19;0.30;;;0.30;;
21634;SDS011;10979;48.306;9.830;2022-12-07T02:02:49;0.30;;;0.30;;
21634;SDS011;10979;48.306;9.830;2022-12-07T02:05:28;0.30;;;0.30;;
21634;SDS011;10979;48.306;9.830;2022-12-07T02:07:55;0.30;;;0.30;;
21634;SDS011;10979;48.306;9.830;2022-12-07T02:10:29;0.30;;;0.30;;
21634;SDS011;10979;48.306;9.830;2022-12-07T02:12:58;0.30;;;0.30;;
21634;SDS011;10979;48.306;9.830;2022-12-07T02:15:34;0.30;;;0.30;;
21634;SDS011;10979;48.306;9.830;2022-12-07T02:21:02;0.30;;;0.30;;
21634;SDS011;10979;48.306;9.830;2022-12-07T02:23:49;0.30;;;0.30;;
21634;SDS011;10979;48.306;9.830;2022-12-07T02:29:45;0.30;;;0.30;;
21634;SDS011;10979;48.306;9.830;2022-12-07T02:32:23;0.30;;;0.30;;
21634;SDS011;10979;48.306;9.830;2022-12-07T02:34:57;0.30;;;0.30;;
21634;SDS011;10979;48.306;9.830;2022-12-07T02:37:37;0.30;;;0.30;;
21634;SDS011;10979;48.306;9.830;2022-12-07T02:40:22;0.30;;;0.30;;
21634;SDS011;10979;48.306;9.830;2022-12-07T02:45:37;0.30;;;0.30;;
21634;SDS011;10979;48.306;9.830;2022-12-07T02:48:05;0.30;;;0.30;;
21634;SDS011;10979;48.306;9.830;2022-12-07T02:50:32;0.30;;;0.30;;
21634;SDS011;10979;48.306;9.830;2022-12-07T02:52:58;0.30;;;0.30;;
21634;SDS011;10979;48.306;9.830;2022-12-07T02:55:26;0.30;;;0.30;;
21634;SDS011;10979;48.306;9.830;2022-12-07T02:58:06;0.32;;;0.32;;
21634;SDS011;10979;48.306;9.830;2022-12-07T03:00:58;0.40;;;0.40;;
21634;SDS011;10979;48.306;9.830;2022-12-07T03:03:33;0.30;;;0.30;;
21634;SDS011;10979;48.306;9.830;2022-12-07T03:06:10;0.30;;;0.30;;
21634;SDS011;10979;48.306;9.830;2022-12-07T03:08:47;0.30;;;0.30;;
21634;SDS011;10979;48.306;9.830;2022-12-07T03:14:13;0.40;;;0.40;;
21634;SDS011;10979;48.306;9.830;2022-12-07T03:17:18;0.40;;;0.40;;
21634;SDS011;10979;48.306;9.830;2022-12-07T03:19:38;0.40;;;0.40;;
21634;SDS011;10979;48.306;9.830;2022-12-07T03:22:07;0.30;;;0.30;;
21634;SDS011;10979;48.306;9.830;2022-12-07T03:24:57;0.30;;;0.30;;
21634;SDS011;10979;48.306;9.830;2022-12-07T03:29:53;0.30;;;0.30;;
21634;SDS011;10979;48.306;9.830;2022-12-07T03:32:25;0.30;;;0.30;;
21634;SDS011;10979;48.306;9.830;2022-12-07T03:37:35;0.40;;;0.40;;
21634;SDS011;10979;48.306;9.830;2022-12-07T03:42:40;0.30;;;0.30;;
21634;SDS011;10979;48.306;9.830;2022-12-07T03:45:07;0.30;;;0.30;;
21634;SDS011;10979;48.306;9.830;2022-12-07T03:52:56;0.30;;;0.30;;
21634;SDS011;10979;48.306;9.830;2022-12-07T03:55:30;0.30;;;0.30;;
21634;SDS011;10979;48.306;9.830;2022-12-07T03:58:01;0.40;;;0.40;;
21634;SDS011;10979;48.306;9.830;2022-12-07T04:00:30;0.30;;;0.30;;
21634;SDS011;10979;48.306;9.830;2022-12-07T04:02:56;0.30;;;0.30;;
21634;SDS011;10979;48.306;9.830;2022-12-07T04:05:21;0.30;;;0.30;;
21634;SDS011;10979;48.306;9.830;2022-12-07T04:07:47;0.30;;;0.30;;
21634;SDS011;10979;48.306;9.830;2022-12-07T04:10:13;0.30;;;0.30;;
21634;SDS011;10979;48.306;9.830;2022-12-07T04:12:39;0.40;;;0.40;;
21634;SDS011;10979;48.306;9.830;2022-12-07T04:15:05;0.35;;;0.35;;
21634;SDS011;10979;48.306;9.830;2022-12-07T04:17:31;0.30;;;0.30;;
21634;SDS011;10979;48.306;9.830;2022-12-07T04:19:57;0.30;;;0.30;;
21634;SDS011;10979;48.306;9.830;2022-12-07T04:22:22;0.30;;;0.30;;
21634;SDS011;10979;48.306;9.830;2022-12-07T04:24:48;0.30;;;0.30;;
21634;SDS011;10979;48.306;9.830;2022-12-07T04:27:13;0.30;;;0.30;;
21634;SDS011;10979;48.306;9.830;2022-12-07T04:29:39;0.30;;;0.30;;
21634;SDS011;10979;48.306;9.830;2022-12-07T04:32:05;0.30;;;0.30;;
21634;SDS011;10979;48.306;9.830;2022-12-07T04:34:30;0.30;;;0.30;;
21634;SDS011;10979;48.306;9.830;2022-12-07T04:36:56;0.30;;;0.30;;
21634;SDS011;10979;48.306;9.830;2022-12-07T04:39:26;0.40;;;0.40;;
21634;SDS011;10979;48.306;9.830;2022-12-07T04:41:53;0.30;;;0.30;;
21634;SDS011;10979;48.306;9.830;2022-12-07T04:44:20;0.30;;;0.30;;
21634;SDS011;10979;48.306;9.830;2022-12-07T04:46:46;0.30;;;0.30;;
21634;SDS011;10979;48.306;9.830;2022-12-07T04:49:13;0.40;;;0.40;;
21634;SDS011;10979;48.306;9.830;2022-12-07T04:51:39;0.30;;;0.30;;
21634;SDS011;10979;48.306;9.830;2022-12-07T04:54:05;0.30;;;0.30;;
21634;SDS011;10979;48.306;9.830;2022-12-07T04:56:31;0.30;;;0.30;;
21634;SDS011;10979;48.306;9.830;2022-12-07T04:58:57;0.40;;;0.40;;
21634;SDS011;10979;48.306;9.830;2022-12-07T05:01:23;0.30;;;0.30;;
21634;SDS011;10979;48.306;9.830;2022-12-07T05:03:49;0.40;;;0.40;;
21634;SDS011;10979;48.306;9.830;2022-12-07T05:06:15;0.30;;;0.30;;
21634;SDS011;10979;48.306;9.830;2022-12-07T05:08:40;0.40;;;0.40;;
21634;SDS011;10979;48.306;9.830;2022-12-07T05:11:07;0.30;;;0.30;;
21634;SDS011;10979;48.306;9.830;2022-12-07T05:13:34;0.30;;;0.30;;
21634;SDS011;10979;48.306;9.830;2022-12-07T05:16:00;0.30;;;0.30;;
21634;SDS011;10979;48.306;9.830;2022-12-07T05:18:26;0.40;;;0.40;;
21634;SDS011;10979;48.306;9.830;2022-12-07T05:20:52;0.30;;;0.30;;
21634;SDS011;10979;48.306;9.830;2022-12-07T05:23:18;0.30;;;0.30;;
21634;SDS011;10979;48.306;9.830;2022-12-07T05:25:44;0.40;;;0.40;;
21634;SDS011;10979;48.306;9.830;2022-12-07T05:28:10;0.30;;;0.30;;
21634;SDS011;10979;48.306;9.830;2022-12-07T05:30:36;0.30;;;0.30;;
21634;SDS011;10979;48.306;9.830;2022-12-07T05:33:02;0.30;;;0.30;;
21634;SDS011;10979;48.306;9.830;2022-12-07T05:35:27;0.30;;;0.30;;
21634;SDS011;10979;48.306;9.830;2022-12-07T05:37:54;0.40;;;0.40;;
21634;SDS011;10979;48.306;9.830;2022-12-07T05:40:20;0.40;;;0.40;;
21634;SDS011;10979;48.306;9.830;2022-12-07T05:42:46;0.30;;;0.30;;
21634;SDS011;10979;48.306;9.830;2022-12-07T05:45:11;0.30;;;0.30;;
21634;SDS011;10979;48.306;9.830;2022-12-07T05:47:37;0.30;;;0.30;;
21634;SDS011;10979;48.306;9.830;2022-12-07T05:50:03;0.40;;;0.40;;
21634;SDS011;10979;48.306;9.830;2022-12-07T05:52:30;0.30;;;0.30;;
21634;SDS011;10979;48.306;9.830;2022-12-07T05:54:56;0.40;;;0.40;;
21634;SDS011;10979;48.306;9.830;2022-12-07T05:57:21;0.30;;;0.30;;
21634;SDS011;10979;48.306;9.830;2022-12-07T05:59:47;0.30;;;0.30;;
21634;SDS011;10979;48.306;9.830;2022-12-07T06:02:13;0.30;;;0.30;;
21634;SDS011;10979;48.306;9.830;2022-12-07T06:04:43;0.40;;;0.40;;
21634;SDS011;10979;48.306;9.830;2022-12-07T06:07:10;0.40;;;0.40;;
21634;SDS011;10979;48.306;9.830;2022-12-07T06:09:36;0.40;;;0.40;;
21634;SDS011;10979;48.306;9.830;2022-12-07T06:12:02;0.30;;;0.30;;
21634;SDS011;10979;48.306;9.830;2022-12-07T06:14:48;0.40;;;0.40;;
21634;SDS011;10979;48.306;9.830;2022-12-07T06:17:14;0.30;;;0.30;;
21634;SDS011;10979;48.306;9.830;2022-12-07T06:19:40;0.32;;;0.32;;
21634;SDS011;10979;48.306;9.830;2022-12-07T06:22:06;0.40;;;0.40;;
21634;SDS011;10979;48.306;9.830;2022-12-07T06:24:32;0.30;;;0.30;;
21634;SDS011;10979;48.306;9.830;2022-12-07T06:26:58;0.40;;;0.40;;
21634;SDS011;10979;48.306;9.830;2022-12-07T06:29:24;0.30;;;0.30;;
21634;SDS011;10979;48.306;9.830;2022-12-07T06:31:50;0.40;;;0.40;;
21634;SDS011;10979;48.306;9.830;2022-12-07T06:34:16;0.40;;;0.40;;
21634;SDS011;10979;48.306;9.830;2022-12-07T06:36:47;0.30;;;0.30;;
21634;SDS011;10979;48.306;9.830;2022-12-07T06:39:16;0.40;;;0.40;;
21634;SDS011;10979;48.306;9.830;2022-12-07T06:41:46;0.40;;;0.40;;
21634;SDS011;10979;48.306;9.830;2022-12-07T06:44:12;0.30;;;0.30;;
21634;SDS011;10979;48.306;9.830;2022-12-07T06:46:38;0.40;;;0.40;;
21634;SDS011;10979;48.306;9.830;2022-12-07T06:49:04;0.40;;;0.40;;
21634;SDS011;10979;48.306;9.830;2022-12-07T06:51:30;0.30;;;0.30;;
21634;SDS011;10979;48.306;9.830;2022-12-07T06:53:56;0.40;;;0.40;;
21634;SDS011;10979;48.306;9.830;2022-12-07T06:56:22;0.30;;;0.30;;
21634;SDS011;10979;48.306;9.830;2022-12-07T06:58:48;0.40;;;0.40;;
21634;SDS011;10979;48.306;9.830;2022-12-07T07:01:15;0.40;;;0.40;;
21634;SDS011;10979;48.306;9.830;2022-12-07T07:03:42;0.40;;;0.40;;
21634;SDS011;10979;48.306;9.830;2022-12-07T07:06:08;0.40;;;0.40;;
21634;SDS011;10979;48.306;9.830;2022-12-07T07:08:35;0.40;;;0.40;;
21634;SDS011;10979;48.306;9.830;2022-12-07T07:11:01;0.40;;;0.40;;
21634;SDS011;10979;48.306;9.830;2022-12-07T07:13:26;0.35;;;0.35;;
21634;SDS011;10979;48.306;9.830;2022-12-07T07:15:52;0.40;;;0.40;;
21634;SDS011;10979;48.306;9.830;2022-12-07T07:18:18;0.40;;;0.40;;
21634;SDS011;10979;48.306;9.830;2022-12-07T07:20:44;0.40;;;0.40;;
21634;SDS011;10979;48.306;9.830;2022-12-07T07:23:09;0.40;;;0.40;;
21634;SDS011;10979;48.306;9.830;2022-12-07T07:25:35;0.40;;;0.40;;
21634;SDS011;10979;48.306;9.830;2022-12-07T07:28:01;0.40;;;0.40;;
21634;SDS011;10979;48.306;9.830;2022-12-07T07:30:26;0.40;;;0.40;;
21634;SDS011;10979;48.306;9.830;2022-12-07T07:32:59;0.40;;;0.40;;
21634;SDS011;10979;48.306;9.830;2022-12-07T07:35:26;0.40;;;0.40;;
21634;SDS011;10979;48.306;9.830;2022-12-07T07:37:53;0.40;;;0.40;;
21634;SDS011;10979;48.306;9.830;2022-12-07T07:40:19;0.40;;;0.40;;
21634;SDS011;10979;48.306;9.830;2022-12-07T07:42:46;0.40;;;0.40;;
21634;SDS011;10979;48.306;9.830;2022-12-07T07:45:13;0.40;;;0.40;;
21634;SDS011;10979;48.306;9.830;2022-12-07T07:47:39;0.40;;;0.40;;
21634;SDS011;10979;48.306;9.830;2022-12-07T07:50:04;0.40;;;0.40;;
21634;SDS011;10979;48.306;9.830;2022-12-07T07:52:31;0.40;;;0.40;;
21634;SDS011;10979;48.306;9.830;2022-12-07T07:54:56;0.40;;;0.40;;
21634;SDS011;10979;48.306;9.830;2022-12-07T07:57:22;0.40;;;0.40;;
21634;SDS011;10979;48.306;9.830;2022-12-07T07:59:47;0.40;;;0.40;;
21634;SDS011;10979;48.306;9.830;2022-12-07T08:02:18;0.40;;;0.40;;
21634;SDS011;10979;48.306;9.830;2022-12-07T08:04:45;0.40;;;0.40;;
21634;SDS011;10979;48.306;9.830;2022-12-07T08:07:11;0.40;;;0.40;;
21634;SDS011;10979;48.306;9.830;2022-12-07T08:09:37;0.30;;;0.30;;
21634;SDS011;10979;48.306;9.830;2022-12-07T08:12:04;0.30;;;0.30;;
21634;SDS011;10979;48.306;9.830;2022-12-07T08:14:30;0.30;;;0.30;;
21634;SDS011;10979;48.306;9.830;2022-12-07T08:16:56;0.30;;;0.30;;
21634;SDS011;10979;48.306;9.830;2022-12-07T08:19:21;0.30;;;0.30;;
21634;SDS011;10979;48.306;9.830;2022-12-07T08:21:47;0.30;;;0.30;;
21634;SDS011;10979;48.306;9.830;2022-12-07T08:24:13;0.30;;;0.30;;
21634;SDS011;10979;48.306;9.830;2022-12-07T08:26:39;0.30;;;0.30;;
21634;SDS011;10979;48.306;9.830;2022-12-07T08:29:05;0.30;;;0.30;;
21634;SDS011;10979;48.306;9.830;2022-12-07T08:31:30;0.30;;;0.30;;
21634;SDS011;10979;48.306;9.830;2022-12-07T08:33:56;0.20;;;0.20;;
21634;SDS011;10979;48.306;9.830;2022-12-07T08:36:22;0.20;;;0.20;;
21634;SDS011;10979;48.306;9.830;2022-12-07T08:38:48;0.20;;;0.20;;
21634;SDS011;10979;48.306;9.830;2022-12-07T08:41:14;0.20;;;0.20;;
21634;SDS011;10979;48.306;9.830;2022-12-07T08:43:40;0.20;;;0.20;;
21634;SDS011;10979;48.306;9.830;2022-12-07T08:46:09;0.20;;;0.20;;
21634;SDS011;10979;48.306;9.830;2022-12-07T08:49:04;0.20;;;0.20;;
21634;SDS011;10979;48.306;9.830;2022-12-07T08:54:00;0.30;;;0.30;;
21634;SDS011;10979;48.306;9.830;2022-12-07T08:56:29;0.30;;;0.30;;
21634;SDS011;10979;48.306;9.830;2022-12-07T08:58:54;0.30;;;0.30;;
21634;SDS011;10979;48.306;9.830;2022-12-07T09:01:20;0.25;;;0.25;;
21634;SDS011;10979;48.306;9.830;2022-12-07T09:03:45;0.30;;;0.30;;
21634;SDS011;10979;48.306;9.830;2022-12-07T09:06:11;0.30;;;0.30;;
21634;SDS011;10979;48.306;9.830;2022-12-07T09:08:39;0.30;;;0.30;;
21634;SDS011;10979;48.306;9.830;2022-12-07T09:11:11;0.30;;;0.30;;
21634;SDS011;10979;48.306;9.830;2022-12-07T09:13:36;0.30;;;0.30;;
21634;SDS011;10979;48.306;9.830;2022-12-07T09:16:02;0.30;;;0.30;;
21634;SDS011;10979;48.306;9.830;2022-12-07T09:18:28;0.30;;;0.30;;
21634;SDS011;10979;48.306;9.830;2022-12-07T09:20:53;0.20;;;0.20;;
21634;SDS011;10979;48.306;9.830;2022-12-07T09:23:19;0.30;;;0.30;;
21634;SDS011;10979;48.306;9.830;2022-12-07T09:25:44;0.30;;;0.30;;
21634;SDS011;10979;48.306;9.830;2022-12-07T09:28:10;0.20;;;0.20;;
21634;SDS011;10979;48.306;9.830;2022-12-07T09:30:35;0.30;;;0.30;;
21634;SDS011;10979;48.306;9.830;2022-12-07T09:33:01;0.30;;;0.30;;
21634;SDS011;10979;48.306;9.830;2022-12-07T09:35:26;0.22;;;0.22;;
21634;SDS011;10979;48.306;9.830;2022-12-07T09:37:52;0.30;;;0.30;;
21634;SDS011;10979;48.306;9.830;2022-12-07T09:40:19;0.30;;;0.30;;
21634;SDS011;10979;48.306;9.830;2022-12-07T09:42:49;0.30;;;0.30;;
21634;SDS011;10979;48.306;9.830;2022-12-07T09:45:39;0.20;;;0.20;;
21634;SDS011;10979;48.306;9.830;2022-12-07T09:48:04;0.20;;;0.20;;
21634;SDS011;10979;48.306;9.830;2022-12-07T09:50:33;0.20;;;0.20;;
21634;SDS011;10979;48.306;9.830;2022-12-07T09:53:09;0.30;;;0.30;;
21634;SDS011;10979;48.306;9.830;2022-12-07T09:55:40;0.30;;;0.30;;
21634;SDS011;10979;48.306;9.830;2022-12-07T09:58:10;0.30;;;0.30;;
21634;SDS011;10979;48.306;9.830;2022-12-07T10:00:52;0.20;;;0.20;;
21634;SDS011;10979;48.306;9.830;2022-12-07T10:03:21;0.22;;;0.22;;
21634;SDS011;10979;48.306;9.830;2022-12-07T10:05:48;0.20;;;0.20;;
21634;SDS011;10979;48.306;9.830;2022-12-07T10:08:15;0.20;;;0.20;;
21634;SDS011;10979;48.306;9.830;2022-12-07T10:10:42;0.20;;;0.20;;
21634;SDS011;10979;48.306;9.830;2022-12-07T10:13:12;0.25;;;0.25;;
21634;SDS011;10979;48.306;9.830;2022-12-07T10:15:44;0.20;;;0.20;;
21634;SDS011;10979;48.306;9.830;2022-12-07T10:18:33;0.20;;;0.20;;
21634;SDS011;10979;48.306;9.830;2022-12-07T10:23:28;0.20;;;0.20;;
21634;SDS011;10979;48.306;9.830;2022-12-07T10:25:54;0.20;;;0.20;;
21634;SDS011;10979;48.306;9.830;2022-12-07T10:28:20;0.20;;;0.20;;
21634;SDS011;10979;48.306;9.830;2022-12-07T10:33:50;0.22;;;0.22;;
21634;SDS011;10979;48.306;9.830;2022-12-07T10:36:34;0.20;;;0.20;;
21634;SDS011;10979;48.306;9.830;2022-12-07T10:39:03;0.30;;;0.30;;
21634;SDS011;10979;48.306;9.830;2022-12-07T10:44:21;0.30;;;0.30;;
21634;SDS011;10979;48.306;9.830;2022-12-07T10:46:54;0.30;;;0.30;;
21634;SDS011;10979;48.306;9.830;2022-12-07T11:00:54;0.20;;;0.20;;
21634;SDS011;10979;48.306;9.830;2022-12-07T11:03:38;0.20;;;0.20;;
21634;SDS011;10979;48.306;9.830;2022-12-07T11:09:16;0.30;;;0.30;;
21634;SDS011;10979;48.306;9.830;2022-12-07T11:11:51;0.20;;;0.20;;
21634;SDS011;10979;48.306;9.830;2022-12-07T11:17:39;0.20;;;0.20;;
21634;SDS011;10979;48.306;9.830;2022-12-07T11:20:37;0.20;;;0.20;;
21634;SDS011;10979;48.306;9.830;2022-12-07T11:26:19;0.20;;;0.20;;
21634;SDS011;10979;48.306;9.830;2022-12-07T11:34:31;0.20;;;0.20;;
21634;SDS011;10979;48.306;9.830;2022-12-07T11:37:18;0.20;;;0.20;;
21634;SDS011;10979;48.306;9.830;2022-12-07T11:42:26;0.20;;;0.20;;
21634;SDS011;10979;48.306;9.830;2022-12-07T11:44:56;0.20;;;0.20;;
21634;SDS011;10979;48.306;9.830;2022-12-07T11:50:40;0.20;;;0.20;;
21634;SDS011;10979;48.306;9.830;2022-12-07T11:53:19;0.20;;;0.20;;
21634;SDS011;10979;48.306;9.830;2022-12-07T11:58:53;0.20;;;0.20;;
21634;SDS011;10979;48.306;9.830;2022-12-07T12:01:29;0.20;;;0.20;;
21634;SDS011;10979;48.306;9.830;2022-12-07T12:04:07;0.20;;;0.20;;
21634;SDS011;10979;48.306;9.830;2022-12-07T12:07:06;0.20;;;0.20;;
21634;SDS011;10979;48.306;9.830;2022-12-07T12:09:44;0.20;;;0.20;;
21634;SDS011;10979;48.306;9.830;2022-12-07T12:12:32;0.20;;;0.20;;
21634;SDS011;10979;48.306;9.830;2022-12-07T12:18:50;0.20;;;0.20;;
21634;SDS011;10979;48.306;9.830;2022-12-07T12:21:22;0.20;;;0.20;;
21634;SDS011;10979;48.306;9.830;2022-12-07T12:23:57;0.20;;;0.20;;
21634;SDS011;10979;48.306;9.830;2022-12-07T12:26:27;0.20;;;0.20;;
21634;SDS011;10979;48.306;9.830;2022-12-07T12:28:57;0.20;;;0.20;;
21634;SDS011;10979;48.306;9.830;2022-12-07T12:31:43;0.20;;;0.20;;
21634;SDS011;10979;48.306;9.830;2022-12-07T12:34:32;0.20;;;0.20;;
21634;SDS011;10979;48.306;9.830;2022-12-07T12:37:48;0.20;;;0.20;;
21634;SDS011;10979;48.306;9.830;2022-12-07T12:42:43;0.20;;;0.20;;
21634;SDS011;10979;48.306;9.830;2022-12-07T12:45:18;0.20;;;0.20;;
21634;SDS011;10979;48.306;9.830;2022-12-07T12:50:30;0.20;;;0.20;;
21634;SDS011;10979;48.306;9.830;2022-12-07T12:53:02;0.20;;;0.20;;
21634;SDS011;10979;48.306;9.830;2022-12-07T13:00:47;0.20;;;0.20;;
21634;SDS011;10979;48.306;9.830;2022-12-07T13:03:34;0.20;;;0.20;;
21634;SDS011;10979;48.306;9.830;2022-12-07T13:08:44;0.20;;;0.20;;
21634;SDS011;10979;48.306;9.830;2022-12-07T13:11:31;0.20;;;0.20;;
21634;SDS011;10979;48.306;9.830;2022-12-07T13:17:07;0.20;;;0.20;;
21634;SDS011;10979;48.306;9.830;2022-12-07T13:22:51;0.20;;;0.20;;
21634;SDS011;10979;48.306;9.830;2022-12-07T13:25:17;0.20;;;0.20;;
21634;SDS011;10979;48.306;9.830;2022-12-07T13:28:00;0.20;;;0.20;;
21634;SDS011;10979;48.306;9.830;2022-12-07T13:33:29;0.20;;;0.20;;
21634;SDS011;10979;48.306;9.830;2022-12-07T13:35:55;0.20;;;0.20;;
21634;SDS011;10979;48.306;9.830;2022-12-07T13:38:27;0.20;;;0.20;;
21634;SDS011;10979;48.306;9.830;2022-12-07T13:43:54;0.30;;;0.30;;
21634;SDS011;10979;48.306;9.830;2022-12-07T13:46:33;0.20;;;0.20;;
21634;SDS011;10979;48.306;9.830;2022-12-07T13:49:25;0.20;;;0.20;;
21634;SDS011;10979;48.306;9.830;2022-12-07T13:52:07;0.30;;;0.30;;
21634;SDS011;10979;48.306;9.830;2022-12-07T13:57:47;0.30;;;0.30;;
21634;SDS011;10979;48.306;9.830;2022-12-07T14:00:18;0.20;;;0.20;;
21634;SDS011;10979;48.306;9.830;2022-12-07T14:05:25;0.20;;;0.20;;
21634;SDS011;10979;48.306;9.830;2022-12-07T14:08:03;0.30;;;0.30;;
21634;SDS011;10979;48.306;9.830;2022-12-07T14:12:59;0.20;;;0.20;;
21634;SDS011;10979;48.306;9.830;2022-12-07T14:15:29;0.30;;;0.30;;
21634;SDS011;10979;48.306;9.830;2022-12-07T14:17:57;0.30;;;0.30;;
21634;SDS011;10979;48.306;9.830;2022-12-07T14:20:33;0.30;;;0.30;;
21634;SDS011;10979;48.306;9.830;2022-12-07T14:22:59;0.30;;;0.30;;
21634;SDS011;10979;48.306;9.830;2022-12-07T14:25:33;0.30;;;0.30;;
21634;SDS011;10979;48.306;9.830;2022-12-07T14:28:23;0.30;;;0.30;;
21634;SDS011;10979;48.306;9.830;2022-12-07T14:30:53;0.20;;;0.20;;
21634;SDS011;10979;48.306;9.830;2022-12-07T14:33:19;0.30;;;0.30;;
21634;SDS011;10979;48.306;9.830;2022-12-07T14:35:46;0.30;;;0.30;;
21634;SDS011;10979;48.306;9.830;2022-12-07T14:38:12;0.30;;;0.30;;
21634;SDS011;10979;48.306;9.830;2022-12-07T14:40:38;0.30;;;0.30;;
21634;SDS011;10979;48.306;9.830;2022-12-07T14:43:11;0.30;;;0.30;;
21634;SDS011;10979;48.306;9.830;2022-12-07T14:45:39;0.30;;;0.30;;
21634;SDS011;10979;48.306;9.830;2022-12-07T14:48:05;0.30;;;0.30;;
21634;SDS011;10979;48.306;9.830;2022-12-07T14:50:34;0.30;;;0.30;;
21634;SDS011;10979;48.306;9.830;2022-12-07T14:53:03;0.30;;;0.30;;
21634;SDS011;10979;48.306;9.830;2022-12-07T14:55:35;0.30;;;0.30;;
21634;SDS011;10979;48.306;9.830;2022-12-07T14:58:01;0.30;;;0.30;;
21634;SDS011;10979;48.306;9.830;2022-12-07T15:00:27;0.30;;;0.30;;
21634;SDS011;10979;48.306;9.830;2022-12-07T15:02:53;0.30;;;0.30;;
21634;SDS011;10979;48.306;9.830;2022-12-07T15:05:20;0.30;;;0.30;;
21634;SDS011;10979;48.306;9.830;2022-12-07T15:07:48;0.30;;;0.30;;
21634;SDS011;10979;48.306;9.830;2022-12-07T15:10:16;0.30;;;0.30;;
21634;SDS011;10979;48.306;9.830;2022-12-07T15:12:44;0.30;;;0.30;;
21634;SDS011;10979;48.306;9.830;2022-12-07T15:15:09;0.30;;;0.30;;
21634;SDS011;10979;48.306;9.830;2022-12-07T15:17:35;0.30;;;0.30;;
21634;SDS011;10979;48.306;9.830;2022-12-07T15:20:00;0.30;;;0.30;;
21634;SDS011;10979;48.306;9.830;2022-12-07T15:22:26;0.30;;;0.30;;
21634;SDS011;10979;48.306;9.830;2022-12-07T15:24:52;0.30;;;0.30;;
21634;SDS011;10979;48.306;9.830;2022-12-07T15:27:18;0.30;;;0.30;;
21634;SDS011;10979;48.306;9.830;2022-12-07T15:29:43;0.30;;;0.30;;
21634;SDS011;10979;48.306;9.830;2022-12-07T15:32:09;0.30;;;0.30;;
21634;SDS011;10979;48.306;9.830;2022-12-07T15:34:34;0.30;;;0.30;;
21634;SDS011;10979;48.306;9.830;2022-12-07T15:37:00;0.30;;;0.30;;
21634;SDS011;10979;48.306;9.830;2022-12-07T15:39:25;0.30;;;0.30;;
21634;SDS011;10979;48.306;9.830;2022-12-07T15:41:51;0.30;;;0.30;;
21634;SDS011;10979;48.306;9.830;2022-12-07T15:44:17;0.30;;;0.30;;
21634;SDS011;10979;48.306;9.830;2022-12-07T15:47:01;0.30;;;0.30;;
21634;SDS011;10979;48.306;9.830;2022-12-07T15:49:27;0.30;;;0.30;;
21634;SDS011;10979;48.306;9.830;2022-12-07T15:51:53;0.30;;;0.30;;
21634;SDS011;10979;48.306;9.830;2022-12-07T15:54:20;0.30;;;0.30;;
21634;SDS011;10979;48.306;9.830;2022-12-07T15:56:47;0.30;;;0.30;;
21634;SDS011;10979;48.306;9.830;2022-12-07T15:59:12;0.30;;;0.30;;
21634;SDS011;10979;48.306;9.830;2022-12-07T16:01:38;0.30;;;0.30;;
21634;SDS011;10979;48.306;9.830;2022-12-07T16:04:04;0.30;;;0.30;;
21634;SDS011;10979;48.306;9.830;2022-12-07T16:06:30;0.30;;;0.30;;
21634;SDS011;10979;48.306;9.830;2022-12-07T16:08:55;0.30;;;0.30;;
21634;SDS011;10979;48.306;9.830;2022-12-07T16:11:21;0.40;;;0.40;;
21634;SDS011;10979;48.306;9.830;2022-12-07T16:13:47;0.40;;;0.40;;
21634;SDS011;10979;48.306;9.830;2022-12-07T16:16:13;0.30;;;0.30;;
21634;SDS011;10979;48.306;9.830;2022-12-07T16:18:42;0.30;;;0.30;;
21634;SDS011;10979;48.306;9.830;2022-12-07T16:21:08;0.40;;;0.40;;
21634;SDS011;10979;48.306;9.830;2022-12-07T16:23:34;0.30;;;0.30;;
21634;SDS011;10979;48.306;9.830;2022-12-07T16:26:07;0.30;;;0.30;;
21634;SDS011;10979;48.306;9.830;2022-12-07T16:28:35;0.30;;;0.30;;
21634;SDS011;10979;48.306;9.830;2022-12-07T16:31:05;0.40;;;0.40;;
21634;SDS011;10979;48.306;9.830;2022-12-07T16:33:35;0.30;;;0.30;;
21634;SDS011;10979;48.306;9.830;2022-12-07T16:36:02;0.30;;;0.30;;
21634;SDS011;10979;48.306;9.830;2022-12-07T16:38:29;0.40;;;0.40;;
21634;SDS011;10979;48.306;9.830;2022-12-07T16:40:55;0.40;;;0.40;;
21634;SDS011;10979;48.306;9.830;2022-12-07T16:43:21;0.40;;;0.40;;
21634;SDS011;10979;48.306;9.830;2022-12-07T16:45:47;0.30;;;0.30;;
21634;SDS011;10979;48.306;9.830;2022-12-07T16:48:16;0.40;;;0.40;;
21634;SDS011;10979;48.306;9.830;2022-12-07T16:50:42;0.40;;;0.40;;
21634;SDS011;10979;48.306;9.830;2022-12-07T16:53:09;0.40;;;0.40;;